Time;durP1;ratioP1;P1;durP2;ratioP2;P2;SDS_P1;SDS_P2;PMS_P1;PMS_P2;Temp;Humidity;BMP_temperature;BMP_pressure;BME280_temperature;BME280_humidity;BME280_pressure;Samples;Min_cycle;Max_cycle;Signal;HPM_P1;HPM_P2
2023/05/27 00:00:58;;;;;;;13.43;10.65;;;25.20;99.90;;;;;;5054106;28;20390;-45
2023/05/27 00:03:24;;;;;;;13.30;11.32;;;25.20;99.90;;;;;;5056680;28;20025;-44
2023/05/27 00:05:49;;;;;;;13.70;11.40;;;25.20;99.90;;;;;;5052483;28;20104;-46
2023/05/27 00:08:15;;;;;;;14.20;11.80;;;25.10;99.90;;;;;;5056289;28;20102;-44
2023/05/27 00:10:41;;;;;;;15.68;11.93;;;25.00;99.90;;;;;;5055425;28;20017;-46
2023/05/27 00:13:07;;;;;;;15.05;12.13;;;25.00;99.90;;;;;;5054998;28;20064;-48
2023/05/27 00:15:32;;;;;;;14.50;10.98;;;25.00;99.90;;;;;;5056188;28;20025;-46
2023/05/27 00:18:02;;;;;;;16.98;11.02;;;24.90;99.90;;;;;;5055302;28;20075;-49
2023/05/27 00:20:30;;;;;;;16.08;12.02;;;24.90;99.90;;;;;;5052029;28;20138;-50
2023/05/27 00:22:56;;;;;;;13.88;12.13;;;24.90;99.90;;;;;;5053907;28;20040;-50
2023/05/27 00:25:22;;;;;;;17.48;11.63;;;24.80;99.90;;;;;;5055852;28;20028;-49
2023/05/27 00:27:49;;;;;;;13.15;11.77;;;24.80;99.90;;;;;;5055296;28;20100;-49
2023/05/27 00:30:15;;;;;;;16.27;11.90;;;24.80;99.90;;;;;;5042949;28;20079;-48
2023/05/27 00:32:42;;;;;;;17.08;11.95;;;24.80;99.90;;;;;;5049357;28;20021;-51
2023/05/27 00:35:08;;;;;;;22.08;11.95;;;24.70;99.90;;;;;;5047629;28;20075;-48
2023/05/27 00:37:34;;;;;;;16.92;11.95;;;24.70;99.90;;;;;;5053867;28;20101;-47
2023/05/27 00:40:00;;;;;;;15.00;11.45;;;24.70;99.90;;;;;;5054753;28;20475;-47
2023/05/27 00:42:26;;;;;;;18.35;12.30;;;24.70;99.90;;;;;;5055116;28;20044;-46
2023/05/27 00:44:51;;;;;;;14.80;12.23;;;24.60;99.90;;;;;;5055539;28;20025;-46
2023/05/27 00:47:18;;;;;;;13.90;12.32;;;24.60;99.90;;;;;;5054345;28;20064;-46
2023/05/27 00:49:45;;;;;;;13.68;11.75;;;24.60;1.00;;;;;;5053791;28;20021;-45
2023/05/27 00:52:11;;;;;;;20.83;12.20;;;24.60;1.00;;;;;;5054992;28;20021;-49
2023/05/27 00:54:36;;;;;;;16.00;12.13;;;24.60;1.00;;;;;;5054454;28;20378;-44
2023/05/27 00:57:03;;;;;;;15.95;11.95;;;24.50;1.00;;;;;;5046445;28;20025;-50
2023/05/27 00:59:29;;;;;;;15.57;12.43;;;24.50;1.00;;;;;;5055661;28;20200;-48
2023/05/27 01:01:54;;;;;;;18.42;11.82;;;24.50;1.00;;;;;;5053273;28;20142;-45
2023/05/27 01:04:21;;;;;;;14.18;12.50;;;24.50;1.00;;;;;;5050187;28;20037;-49
2023/05/27 01:07:21;;;;;;;14.55;12.43;;;24.40;1.00;;;;;;5055614;28;20037;-45
2023/05/27 01:10:25;;;;;;;19.65;12.98;;;24.40;1.00;;;;;;5050944;28;20094;-44
2023/05/27 01:12:54;;;;;;;15.40;11.87;;;24.40;1.00;;;;;;5046732;28;20482;-44
2023/05/27 01:19:03;;;;;;;15.25;12.35;;;24.20;1.00;;;;;;5042442;28;20043;-43
2023/05/27 01:21:30;;;;;;;15.43;11.80;;;24.20;1.00;;;;;;5051089;28;20103;-44
2023/05/27 01:24:03;;;;;;;25.20;13.48;;;24.20;1.00;;;;;;5051165;28;20051;-44
2023/05/27 01:26:28;;;;;;;15.20;11.73;;;24.20;1.00;;;;;;5054173;28;20128;-44
2023/05/27 01:28:54;;;;;;;18.25;12.57;;;24.20;1.00;;;;;;5051496;28;20073;-44
2023/05/27 01:31:35;;;;;;;16.17;11.88;;;24.10;1.00;;;;;;5053960;28;20064;-45
2023/05/27 01:34:07;;;;;;;12.75;11.23;;;24.10;1.00;;;;;;5051140;28;20021;-46
2023/05/27 01:36:40;;;;;;;13.98;10.95;;;24.10;1.00;;;;;;5048767;28;20064;-44
2023/05/27 01:39:11;;;;;;;16.13;11.82;;;24.10;1.00;;;;;;5050870;28;20033;-46
2023/05/27 01:41:38;;;;;;;14.15;11.50;;;24.10;1.00;;;;;;5051053;28;20033;-47
2023/05/27 01:44:04;;;;;;;14.50;11.48;;;24.00;1.00;;;;;;5052530;28;20100;-45
2023/05/27 01:46:30;;;;;;;15.00;11.50;;;24.00;1.00;;;;;;5050779;28;20045;-46
2023/05/27 01:48:56;;;;;;;13.05;11.20;;;24.00;1.00;;;;;;5053182;28;20027;-44
2023/05/27 01:51:21;;;;;;;13.75;11.95;;;24.00;1.00;;;;;;5052619;28;20448;-48
2023/05/27 01:53:47;;;;;;;13.43;11.68;;;23.90;1.00;;;;;;5051675;28;20138;-44
2023/05/27 01:56:13;;;;;;;12.13;10.65;;;23.90;1.00;;;;;;5052411;28;20083;-45
2023/05/27 01:58:38;;;;;;;14.23;12.20;;;23.90;1.00;;;;;;5052246;28;20556;-46
2023/05/27 02:01:04;;;;;;;14.35;11.32;;;23.90;1.00;;;;;;5052528;28;20356;-44
2023/05/27 02:03:29;;;;;;;15.70;12.55;;;23.80;1.00;;;;;;5051649;28;20112;-46
2023/05/27 02:05:55;;;;;;;14.27;12.43;;;23.70;1.00;;;;;;5052915;28;20041;-50
2023/05/27 02:08:21;;;;;;;13.73;12.07;;;23.80;1.00;;;;;;5044901;28;20028;-45
2023/05/27 02:10:46;;;;;;;12.32;11.13;;;23.80;1.00;;;;;;5045280;28;20033;-45
2023/05/27 02:13:38;;;;;;;12.95;11.63;;;23.80;1.00;;;;;;5050499;28;20040;-47
2023/05/27 02:16:03;;;;;;;13.68;11.63;;;23.70;1.00;;;;;;5053015;28;20040;-49
2023/05/27 02:18:31;;;;;;;13.55;10.85;;;23.70;1.00;;;;;;5050987;28;20029;-44
2023/05/27 02:21:08;;;;;;;13.43;11.68;;;23.80;1.00;;;;;;5053006;28;20021;-46
2023/05/27 02:23:36;;;;;;;12.10;11.00;;;23.80;1.00;;;;;;5050711;28;20041;-44
2023/05/27 02:26:02;;;;;;;11.30;9.93;;;23.80;1.00;;;;;;5052280;28;20067;-44
2023/05/27 02:28:27;;;;;;;13.82;10.30;;;23.70;1.00;;;;;;5050967;28;20048;-45
2023/05/27 02:30:53;;;;;;;12.05;10.20;;;23.70;1.00;;;;;;5051404;28;20029;-46
2023/05/27 02:33:19;;;;;;;13.38;9.95;;;23.60;1.00;;;;;;5051603;28;20028;-46
2023/05/27 02:35:45;;;;;;;13.75;11.13;;;23.60;1.00;;;;;;5051358;28;20064;-44
2023/05/27 02:38:11;;;;;;;11.30;10.15;;;23.60;1.00;;;;;;5045855;28;20411;-48
2023/05/27 02:40:37;;;;;;;12.00;10.40;;;23.60;1.00;;;;;;5045689;28;20032;-44
2023/05/27 02:43:08;;;;;;;11.38;9.95;;;23.60;1.00;;;;;;5050830;28;20032;-46
2023/05/27 02:45:34;;;;;;;11.52;10.32;;;23.60;1.00;;;;;;5049650;28;20045;-46
2023/05/27 02:48:01;;;;;;;12.43;10.60;;;23.60;1.00;;;;;;5052179;28;20017;-50
2023/05/27 02:50:27;;;;;;;11.25;9.93;;;23.60;1.00;;;;;;5051235;28;20102;-49
2023/05/27 02:52:52;;;;;;;11.77;9.60;;;23.60;1.00;;;;;;5048800;28;20111;-46
2023/05/27 02:55:18;;;;;;;11.02;9.93;;;23.50;1.00;;;;;;5044085;28;20108;-49
2023/05/27 02:57:44;;;;;;;10.32;9.32;;;23.50;1.00;;;;;;5050288;28;20116;-46
2023/05/27 03:00:14;;;;;;;10.73;9.10;;;23.60;1.00;;;;;;5043567;28;20029;-46
2023/05/27 03:02:40;;;;;;;9.93;8.93;;;23.50;1.00;;;;;;5048175;28;20111;-47
2023/05/27 03:05:06;;;;;;;9.85;8.85;;;23.50;1.00;;;;;;5045105;28;20478;-48
2023/05/27 03:07:32;;;;;;;10.43;9.32;;;23.50;1.00;;;;;;5039445;28;20079;-46
2023/05/27 03:09:58;;;;;;;11.32;8.57;;;23.50;1.00;;;;;;5049199;28;20033;-53
2023/05/27 03:12:24;;;;;;;9.10;7.38;;;23.40;1.00;;;;;;5052273;28;20029;-52
2023/05/27 03:14:50;;;;;;;8.40;7.60;;;23.40;1.00;;;;;;5048629;28;20056;-54
2023/05/27 03:17:22;;;;;;;8.27;6.85;;;23.30;1.00;;;;;;5050771;28;20498;-50
2023/05/27 03:19:48;;;;;;;8.75;7.55;;;23.30;1.00;;;;;;5051048;28;20071;-46
2023/05/27 03:22:14;;;;;;;9.60;7.32;;;23.30;1.00;;;;;;5049690;28;20437;-45
2023/05/27 03:24:40;;;;;;;9.80;7.90;;;23.20;1.00;;;;;;5046460;28;20022;-46
2023/05/27 03:27:06;;;;;;;11.25;8.85;;;23.20;1.00;;;;;;5046870;28;20041;-45
2023/05/27 03:29:31;;;;;;;11.23;8.00;;;23.10;1.00;;;;;;5055867;28;20378;-45
2023/05/27 03:31:58;;;;;;;11.75;8.60;;;23.10;1.00;;;;;;5052821;28;20351;-46
2023/05/27 03:34:24;;;;;;;9.40;8.50;;;23.00;1.00;;;;;;5051828;28;20494;-50
2023/05/27 03:36:50;;;;;;;9.80;7.93;;;23.10;1.00;;;;;;5048256;28;20406;-46
2023/05/27 03:39:18;;;;;;;10.68;9.52;;;23.10;1.00;;;;;;5047591;28;20509;-45
2023/05/27 03:41:44;;;;;;;11.57;9.65;;;22.90;1.00;;;;;;5053889;28;20025;-53
2023/05/27 03:44:10;;;;;;;12.57;10.98;;;22.90;1.00;;;;;;5043846;28;20033;-47
2023/05/27 03:46:36;;;;;;;12.82;10.35;;;22.90;1.00;;;;;;5052523;28;20037;-47
2023/05/27 03:49:02;;;;;;;12.38;10.70;;;22.90;1.00;;;;;;5056202;28;20024;-47
2023/05/27 03:51:28;;;;;;;12.13;10.88;;;22.80;1.00;;;;;;5054577;28;20119;-46
2023/05/27 03:53:57;;;;;;;13.18;10.32;;;22.70;1.00;;;;;;5055627;28;20113;-51
2023/05/27 03:56:22;;;;;;;13.20;10.40;;;22.70;1.00;;;;;;5050523;28;20529;-53
2023/05/27 03:58:50;;;;;;;11.32;10.15;;;22.70;1.00;;;;;;5051243;28;20041;-53
2023/05/27 04:01:16;;;;;;;11.63;9.27;;;22.70;1.00;;;;;;5051800;28;20044;-48
2023/05/27 04:03:43;;;;;;;12.27;9.07;;;22.70;1.00;;;;;;5046828;28;20067;-46
2023/05/27 04:06:09;;;;;;;10.57;8.75;;;22.60;1.00;;;;;;5055346;28;20590;-49
2023/05/27 04:08:35;;;;;;;9.25;8.30;;;22.60;1.00;;;;;;5041916;28;20105;-46
2023/05/27 04:11:38;;;;;;;9.27;7.63;;;22.60;1.00;;;;;;5056457;28;20203;-53
2023/05/27 04:14:06;;;;;;;8.82;7.47;;;22.40;1.00;;;;;;5045788;28;20029;-51
2023/05/27 04:16:33;;;;;;;9.80;7.32;;;22.50;1.00;;;;;;5054595;28;20036;-46
2023/05/27 04:19:02;;;;;;;8.60;7.25;;;22.40;1.00;;;;;;5054998;28;20497;-46
2023/05/27 04:21:28;;;;;;;7.35;6.55;;;22.50;1.00;;;;;;5054090;28;20107;-47
2023/05/27 04:23:54;;;;;;;10.30;7.00;;;22.50;1.00;;;;;;5055993;28;20025;-47
2023/05/27 04:26:20;;;;;;;8.35;6.55;;;22.50;1.00;;;;;;5055190;28;20032;-44
2023/05/27 04:28:46;;;;;;;9.13;6.07;;;22.40;1.00;;;;;;5055898;28;20483;-44
2023/05/27 04:31:13;;;;;;;6.57;5.85;;;22.40;1.00;;;;;;5042044;28;20033;-45
2023/05/27 04:33:42;;;;;;;6.82;5.80;;;22.40;1.00;;;;;;5050962;28;20175;-46
2023/05/27 04:36:09;;;;;;;6.07;5.45;;;22.40;1.00;;;;;;5055922;28;20123;-45
2023/05/27 04:38:34;;;;;;;7.72;5.18;;;22.30;1.00;;;;;;5054306;28;20127;-44
2023/05/27 04:41:01;;;;;;;6.03;5.43;;;22.40;1.00;;;;;;5055940;28;20055;-45
2023/05/27 04:43:27;;;;;;;5.72;4.93;;;22.30;1.00;;;;;;5054477;28;20074;-44
2023/05/27 04:45:53;;;;;;;6.47;4.82;;;22.40;1.00;;;;;;5053718;28;20394;-45
2023/05/27 04:48:19;;;;;;;8.73;4.60;;;22.40;1.00;;;;;;5053970;28;20064;-45
2023/05/27 04:50:45;;;;;;;4.45;4.05;;;22.30;1.00;;;;;;5051990;28;20022;-44
2023/05/27 04:53:56;;;;;;;6.25;4.53;;;22.30;1.00;;;;;;5056017;28;20048;-47
2023/05/27 04:56:22;;;;;;;6.80;3.70;;;22.30;1.00;;;;;;5052836;28;20115;-44
2023/05/27 04:58:48;;;;;;;4.40;3.58;;;22.30;1.00;;;;;;5055422;28;20486;-46
2023/05/27 05:01:17;;;;;;;4.00;3.10;;;22.30;1.00;;;;;;5054045;28;20129;-45
2023/05/27 05:06:29;;;;;;;3.45;3.20;;;22.20;1.00;;;;;;5049459;28;20044;-44
2023/05/27 05:09:01;;;;;;;4.80;2.58;;;22.10;1.00;;;;;;5055646;28;20386;-44
2023/05/27 05:11:26;;;;;;;3.88;2.78;;;22.20;1.00;;;;;;5050424;28;20071;-44
2023/05/27 05:13:52;;;;;;;3.10;2.65;;;22.20;1.00;;;;;;5043732;28;20029;-44
2023/05/27 05:16:18;;;;;;;3.60;2.97;;;22.20;1.00;;;;;;5050165;28;20032;-46
2023/05/27 05:18:43;;;;;;;4.15;3.15;;;22.20;1.00;;;;;;5055642;28;20070;-44
2023/05/27 05:21:09;;;;;;;4.53;2.58;;;22.20;1.00;;;;;;5051042;28;20029;-44
2023/05/27 05:23:35;;;;;;;3.13;2.90;;;22.20;1.00;;;;;;5055140;28;20032;-46
2023/05/27 05:26:06;;;;;;;2.97;2.60;;;22.20;1.00;;;;;;5052391;28;20095;-46
2023/05/27 05:28:32;;;;;;;3.78;2.80;;;22.20;1.00;;;;;;5053029;28;20029;-45
2023/05/27 05:30:58;;;;;;;3.53;3.13;;;22.30;1.00;;;;;;5053447;28;20471;-48
2023/05/27 05:33:23;;;;;;;3.95;2.67;;;22.20;1.00;;;;;;5054787;28;20123;-48
2023/05/27 05:35:49;;;;;;;3.58;3.28;;;22.20;1.00;;;;;;5045208;28;20106;-44
2023/05/27 05:38:21;;;;;;;4.13;3.00;;;22.10;1.00;;;;;;5047748;28;20148;-47
2023/05/27 05:40:49;;;;;;;4.18;3.10;;;22.20;1.00;;;;;;5051393;28;20508;-44
2023/05/27 05:43:15;;;;;;;4.35;3.75;;;22.20;1.00;;;;;;5053927;28;20112;-45
2023/05/27 05:45:41;;;;;;;7.50;3.95;;;22.10;1.00;;;;;;5051500;28;20575;-46
2023/05/27 05:48:06;;;;;;;3.60;3.30;;;22.20;1.00;;;;;;5054485;28;20108;-45
2023/05/27 05:50:32;;;;;;;4.72;3.75;;;22.30;1.00;;;;;;5051254;28;20077;-48
2023/05/27 05:52:58;;;;;;;3.92;3.63;;;22.20;1.00;;;;;;5054710;28;20108;-48
2023/05/27 05:55:24;;;;;;;4.75;4.10;;;22.30;1.00;;;;;;5049551;28;20513;-45
2023/05/27 05:57:49;;;;;;;4.90;4.13;;;22.30;1.00;;;;;;5053130;28;20020;-45
2023/05/27 06:00:16;;;;;;;4.70;4.22;;;22.30;1.00;;;;;;5053273;28;20479;-45
2023/05/27 06:02:41;;;;;;;4.68;4.18;;;22.20;1.00;;;;;;5054055;28;20466;-45
2023/05/27 06:05:07;;;;;;;5.13;4.30;;;22.20;1.00;;;;;;5051870;28;20025;-52
2023/05/27 06:07:33;;;;;;;5.07;4.57;;;22.30;1.00;;;;;;5053181;28;20056;-51
2023/05/27 06:09:59;;;;;;;4.60;4.20;;;22.20;1.00;;;;;;5052607;28;20509;-48
2023/05/27 06:12:25;;;;;;;5.25;4.70;;;22.20;1.00;;;;;;5053316;28;20112;-51
2023/05/27 06:14:51;;;;;;;5.57;5.05;;;22.20;1.00;;;;;;5052670;28;20017;-50
2023/05/27 06:17:17;;;;;;;4.75;3.95;;;22.30;1.00;;;;;;5052153;28;20032;-46
2023/05/27 06:19:42;;;;;;;5.85;4.72;;;22.30;1.00;;;;;;5051625;28;20025;-44
2023/05/27 06:22:08;;;;;;;5.93;4.68;;;22.30;1.00;;;;;;5052792;28;20037;-44
2023/05/27 06:24:34;;;;;;;5.45;4.90;;;22.20;1.00;;;;;;5054119;28;20086;-47
2023/05/27 06:27:00;;;;;;;5.88;5.28;;;22.30;1.00;;;;;;5051826;28;20119;-44
2023/05/27 06:29:26;;;;;;;8.93;5.53;;;22.30;1.00;;;;;;5052626;28;20021;-45
2023/05/27 06:31:52;;;;;;;7.47;5.38;;;22.20;1.00;;;;;;5052318;28;20402;-50
2023/05/27 06:34:18;;;;;;;7.05;5.40;;;22.40;1.00;;;;;;5052573;28;20494;-50
2023/05/27 06:36:43;;;;;;;6.68;5.70;;;22.40;1.00;;;;;;5052729;28;20389;-45
2023/05/27 06:39:10;;;;;;;6.28;5.65;;;22.40;1.00;;;;;;5053318;28;20079;-48
2023/05/27 06:41:36;;;;;;;6.90;4.78;;;22.50;1.00;;;;;;5051272;28;20029;-47
2023/05/27 06:44:02;;;;;;;6.40;5.72;;;22.60;1.00;;;;;;5052247;28;20025;-45
2023/05/27 06:46:28;;;;;;;11.13;6.10;;;22.60;1.00;;;;;;5052085;28;20037;-45
2023/05/27 06:48:53;;;;;;;13.73;6.35;;;22.60;1.00;;;;;;5051857;28;20017;-45
2023/05/27 06:51:21;;;;;;;6.50;5.90;;;22.70;1.00;;;;;;5053605;28;20552;-48
2023/05/27 06:53:48;;;;;;;6.60;5.80;;;22.80;1.00;;;;;;5050646;28;20020;-48
2023/05/27 06:56:14;;;;;;;7.38;6.00;;;22.70;1.00;;;;;;5053323;28;20035;-46
2023/05/27 06:58:39;;;;;;;7.32;5.70;;;22.70;1.00;;;;;;5049916;28;20020;-46
2023/05/27 07:01:05;;;;;;;7.88;5.97;;;22.70;1.00;;;;;;5051133;28;20037;-45
2023/05/27 07:03:31;;;;;;;6.82;6.20;;;22.80;1.00;;;;;;5052147;28;20017;-49
2023/05/27 07:05:57;;;;;;;8.45;5.82;;;22.80;1.00;;;;;;5038876;28;20124;-45
2023/05/27 07:08:25;;;;;;;9.82;6.70;;;22.90;1.00;;;;;;5051942;28;20025;-47
2023/05/27 07:10:51;;;;;;;6.68;5.97;;;22.90;1.00;;;;;;5049473;28;20111;-47
2023/05/27 07:13:17;;;;;;;8.25;7.40;;;22.90;1.00;;;;;;5053239;28;20113;-44
2023/05/27 07:15:46;;;;;;;8.07;7.28;;;22.90;1.00;;;;;;5052115;28;20025;-45
2023/05/27 07:18:11;;;;;;;7.20;6.25;;;22.90;1.00;;;;;;5052029;28;20082;-44
2023/05/27 07:20:39;;;;;;;10.55;7.20;;;22.90;1.00;;;;;;5051919;28;20500;-45
2023/05/27 07:23:05;;;;;;;9.35;7.50;;;23.00;1.00;;;;;;5052966;28;20028;-45
2023/05/27 07:25:31;;;;;;;10.27;8.02;;;22.90;1.00;;;;;;5050913;28;20029;-46
2023/05/27 07:27:59;;;;;;;8.50;7.65;;;23.00;1.00;;;;;;5053194;28;20029;-45
2023/05/27 07:30:25;;;;;;;9.52;8.52;;;23.10;1.00;;;;;;5034599;28;20037;-45
2023/05/27 07:32:52;;;;;;;8.85;7.95;;;23.10;1.00;;;;;;5045028;28;20021;-45
2023/05/27 07:35:18;;;;;;;10.55;7.43;;;23.20;1.00;;;;;;5051614;28;20114;-46
2023/05/27 07:37:44;;;;;;;9.68;8.07;;;23.20;1.00;;;;;;5051486;28;20049;-47
2023/05/27 07:40:10;;;;;;;9.55;7.57;;;23.30;1.00;;;;;;5051544;28;20025;-45
2023/05/27 07:42:36;;;;;;;11.05;7.13;;;23.40;1.00;;;;;;5052055;28;20056;-44
2023/05/27 07:45:03;;;;;;;9.77;7.95;;;23.50;1.00;;;;;;5052855;28;20112;-44
2023/05/27 07:47:29;;;;;;;8.05;7.18;;;23.50;1.00;;;;;;5050408;28;20124;-46
2023/05/27 07:49:55;;;;;;;8.82;7.63;;;23.60;1.00;;;;;;5049043;28;20033;-44
2023/05/27 07:52:21;;;;;;;8.43;7.55;;;23.60;1.00;;;;;;5050650;28;20116;-45
2023/05/27 07:54:48;;;;;;;9.50;8.45;;;23.60;1.00;;;;;;5051482;28;20056;-44
2023/05/27 07:57:16;;;;;;;10.73;7.68;;;23.60;1.00;;;;;;5037498;28;20034;-45
2023/05/27 07:59:42;;;;;;;7.95;7.15;;;23.60;1.00;;;;;;5042751;28;20122;-53
2023/05/27 08:02:08;;;;;;;9.07;7.05;;;23.60;1.00;;;;;;5052459;28;20025;-59
2023/05/27 08:04:34;;;;;;;9.65;7.40;;;23.60;1.00;;;;;;5050666;28;20051;-59
2023/05/27 08:06:59;;;;;;;7.95;7.22;;;23.60;1.00;;;;;;5050719;28;20041;-60
2023/05/27 08:09:25;;;;;;;10.10;7.78;;;23.50;1.00;;;;;;5051661;28;20383;-59
2023/05/27 08:11:51;;;;;;;12.52;9.60;;;23.50;1.00;;;;;;5052466;28;20368;-60
2023/05/27 08:14:16;;;;;;;9.55;8.55;;;23.50;1.00;;;;;;5053976;28;20100;-60
2023/05/27 08:16:42;;;;;;;11.43;8.15;;;23.50;1.00;;;;;;5054955;28;20029;-60
2023/05/27 08:19:08;;;;;;;8.07;7.28;;;23.50;1.00;;;;;;5053870;28;20051;-59
2023/05/27 08:21:34;;;;;;;10.85;9.75;;;23.50;1.00;;;;;;5055915;28;20025;-59
2023/05/27 08:24:00;;;;;;;10.10;9.07;;;23.50;1.00;;;;;;5054200;28;20052;-59
2023/05/27 08:29:54;;;;;;;20.20;14.57;;;23.70;1.00;;;;;;5041294;28;20060;-59
2023/05/27 08:32:19;;;;;;;12.02;10.52;;;23.70;1.00;;;;;;5054666;28;20486;-59
2023/05/27 08:34:45;;;;;;;16.92;13.80;;;23.80;1.00;;;;;;5055851;28;20081;-59
2023/05/27 08:37:11;;;;;;;8.10;7.13;;;23.90;1.00;;;;;;5053343;28;20032;-59
2023/05/27 08:39:37;;;;;;;11.82;9.68;;;23.90;1.00;;;;;;5054600;28;20083;-58
2023/05/27 08:42:04;;;;;;;13.85;11.80;;;24.00;1.00;;;;;;5054547;28;20103;-58
2023/05/27 08:44:29;;;;;;;11.63;10.20;;;24.00;1.00;;;;;;5055822;28;20033;-59
2023/05/27 08:46:55;;;;;;;18.08;14.18;;;24.00;1.00;;;;;;5054536;28;20498;-59
2023/05/27 08:49:21;;;;;;;10.25;8.25;;;24.10;1.00;;;;;;5055898;28;20409;-59
2023/05/27 08:51:48;;;;;;;8.68;7.50;;;24.10;1.00;;;;;;5052050;28;20036;-59
2023/05/27 08:54:15;;;;;;;8.20;7.28;;;24.20;1.00;;;;;;5053720;28;20534;-59
2023/05/27 08:56:43;;;;;;;9.60;7.05;;;24.20;1.00;;;;;;5055458;28;20067;-59
2023/05/27 08:59:08;;;;;;;15.18;11.40;;;24.30;1.00;;;;;;5054477;28;20025;-59
2023/05/27 09:01:35;;;;;;;17.10;11.93;;;24.40;1.00;;;;;;5055385;28;20364;-59
2023/05/27 09:04:01;;;;;;;8.57;7.65;;;24.40;1.00;;;;;;5051521;28;20375;-59
2023/05/27 09:06:26;;;;;;;10.90;8.18;;;24.50;1.00;;;;;;5049009;28;20051;-59
2023/05/27 09:08:52;;;;;;;9.88;8.88;;;24.50;1.00;;;;;;5054056;28;20083;-59
2023/05/27 09:11:26;;;;;;;10.73;7.75;;;24.50;1.00;;;;;;5052764;28;20104;-60
2023/05/27 09:13:55;;;;;;;10.20;8.85;;;24.40;1.00;;;;;;5054511;28;20098;-56
2023/05/27 09:16:22;;;;;;;8.93;8.05;;;24.40;1.00;;;;;;5051376;28;20092;-56
2023/05/27 09:18:49;;;;;;;13.07;9.82;;;24.40;1.00;;;;;;5055399;28;20017;-61
2023/05/27 09:21:15;;;;;;;10.15;9.15;;;24.50;1.00;;;;;;5053306;28;20513;-56
2023/05/27 09:23:41;;;;;;;8.25;7.47;;;24.50;1.00;;;;;;5055221;28;20419;-57
2023/05/27 09:26:11;;;;;;;9.73;8.13;;;24.50;1.00;;;;;;5051435;28;20112;-57
2023/05/27 09:28:38;;;;;;;9.75;8.75;;;24.60;1.00;;;;;;5035525;28;20108;-56
2023/05/27 09:31:05;;;;;;;12.02;8.52;;;24.60;1.00;;;;;;5048539;28;20033;-57
2023/05/27 09:33:33;;;;;;;10.38;8.43;;;24.60;1.00;;;;;;5054618;28;20494;-55
2023/05/27 09:36:03;;;;;;;10.15;9.13;;;24.70;1.00;;;;;;5053662;28;20048;-56
2023/05/27 09:38:30;;;;;;;9.93;8.68;;;24.70;1.00;;;;;;5054322;28;20050;-55
2023/05/27 09:40:59;;;;;;;9.27;8.48;;;24.80;1.00;;;;;;5051867;28;20047;-56
2023/05/27 09:43:26;;;;;;;9.48;8.60;;;24.80;1.00;;;;;;5053140;28;20108;-56
2023/05/27 09:46:03;;;;;;;10.88;9.23;;;24.70;1.00;;;;;;5053008;28;20029;-56
2023/05/27 09:48:31;;;;;;;8.80;7.88;;;24.70;1.00;;;;;;5053634;28;20075;-55
2023/05/27 09:54:46;;;;;;;9.20;8.30;;;24.80;1.00;;;;;;5051704;28;20064;-53
2023/05/27 09:57:13;;;;;;;9.05;8.15;;;24.80;1.00;;;;;;5052137;28;20128;-53
2023/05/27 09:59:38;;;;;;;10.07;9.00;;;25.00;1.00;;;;;;5053448;28;20033;-54
2023/05/27 10:02:06;;;;;;;9.48;8.35;;;25.00;1.00;;;;;;5052565;28;20025;-52
2023/05/27 10:04:35;;;;;;;10.82;9.15;;;25.10;1.00;;;;;;5054450;28;20021;-53
2023/05/27 10:07:02;;;;;;;10.82;9.73;;;25.00;1.00;;;;;;5051852;28;20095;-53
2023/05/27 10:09:28;;;;;;;10.68;9.57;;;25.10;1.00;;;;;;5054181;28;20024;-56
2023/05/27 10:11:54;;;;;;;13.63;9.57;;;25.10;1.00;;;;;;5050305;28;20031;-58
2023/05/27 10:14:21;;;;;;;10.35;9.27;;;25.10;1.00;;;;;;5051688;28;20025;-58
2023/05/27 10:16:55;;;;;;;10.55;9.45;;;25.20;1.00;;;;;;5052744;28;20025;-56
2023/05/27 10:19:21;;;;;;;11.40;10.20;;;25.20;1.00;;;;;;5053961;28;20548;-57
2023/05/27 10:21:47;;;;;;;10.38;8.98;;;25.30;1.00;;;;;;5044501;28;20099;-49
2023/05/27 10:24:13;;;;;;;12.30;10.27;;;25.40;1.00;;;;;;5052058;28;20041;-49
2023/05/27 10:26:44;;;;;;;9.77;8.55;;;25.40;1.00;;;;;;5051626;28;20040;-49
2023/05/27 10:29:14;;;;;;;11.20;10.20;;;25.40;1.00;;;;;;5052055;28;20037;-50
2023/05/27 10:31:52;;;;;;;10.90;9.60;;;25.50;1.00;;;;;;5053955;28;20027;-46
2023/05/27 10:34:18;;;;;;;10.20;9.20;;;25.60;1.00;;;;;;5051413;28;20547;-61
2023/05/27 10:36:45;;;;;;;12.32;9.27;;;25.60;1.00;;;;;;5053284;28;20017;-59
2023/05/27 10:39:16;;;;;;;11.35;9.40;;;25.60;1.00;;;;;;5052179;28;20059;-51
2023/05/27 10:41:52;;;;;;;11.98;10.88;;;25.70;1.00;;;;;;5050195;28;20079;-46
2023/05/27 10:45:10;;;;;;;11.80;10.60;;;25.70;1.00;;;;;;5053648;28;20102;-46
2023/05/27 10:47:39;;;;;;;12.02;10.55;;;25.90;1.00;;;;;;5040424;28;20036;-47
2023/05/27 10:50:14;;;;;;;11.38;10.30;;;26.00;1.00;;;;;;5049720;28;20091;-46
2023/05/27 10:56:01;;;;;;;10.82;9.73;;;26.20;1.00;;;;;;5046006;28;20454;-50
2023/05/27 10:58:28;;;;;;;13.23;11.95;;;26.30;1.00;;;;;;5052385;28;20044;-53
2023/05/27 11:00:56;;;;;;;12.13;10.93;;;26.30;1.00;;;;;;5050788;28;20078;-49
2023/05/27 11:03:28;;;;;;;12.18;10.98;;;26.40;1.00;;;;;;5045633;28;20108;-47
2023/05/27 11:06:01;;;;;;;10.75;9.70;;;26.80;1.00;;;;;;5052179;28;20068;-53
2023/05/27 11:08:27;;;;;;;10.25;9.20;;;27.00;99.90;;;;;;5037238;28;20029;-53
2023/05/27 11:11:00;;;;;;;12.43;9.50;;;27.30;99.90;;;;;;5036667;28;20031;-54
2023/05/27 11:13:35;;;;;;;10.88;9.75;;;27.60;99.90;;;;;;5042570;28;20494;-51
2023/05/27 11:16:03;;;;;;;11.57;9.57;;;27.60;99.90;;;;;;5050007;28;20057;-49
2023/05/27 11:18:41;;;;;;;9.20;8.32;;;27.70;99.90;;;;;;5053180;28;20037;-49
2023/05/27 11:21:08;;;;;;;10.48;9.45;;;27.70;99.90;;;;;;5051716;28;20025;-48
2023/05/27 11:23:45;;;;;;;11.80;10.77;;;27.90;99.90;;;;;;5053283;28;20364;-50
2023/05/27 11:26:22;;;;;;;10.10;9.10;;;28.10;99.90;;;;;;5051491;28;20425;-46
2023/05/27 11:28:56;;;;;;;10.70;9.63;;;28.30;99.90;;;;;;5053105;28;20081;-47
2023/05/27 11:31:28;;;;;;;11.95;10.23;;;28.50;99.90;;;;;;5049670;28;20425;-50
2023/05/27 11:33:53;;;;;;;9.43;8.52;;;28.80;99.90;;;;;;5053265;28;20371;-50
2023/05/27 11:36:23;;;;;;;9.90;8.80;;;29.10;99.90;;;;;;5052028;28;20032;-48
2023/05/27 11:38:58;;;;;;;8.77;8.05;;;29.40;99.90;;;;;;5050464;28;20243;-46
2023/05/27 11:41:29;;;;;;;12.85;11.55;;;29.90;99.90;;;;;;5053025;28;20035;-49
2023/05/27 11:44:21;;;;;;;12.05;10.95;;;30.40;99.90;;;;;;5050177;28;20129;-48
2023/05/27 11:46:47;;;;;;;9.80;8.15;;;30.90;99.90;;;;;;5051948;28;20057;-46
2023/05/27 11:49:14;;;;;;;8.88;8.07;;;32.00;99.90;;;;;;5052773;28;20028;-46
2023/05/27 11:51:45;;;;;;;8.80;7.90;;;32.30;99.90;;;;;;5054322;28;20025;-46
2023/05/27 11:54:24;;;;;;;9.60;8.57;;;34.30;99.90;;;;;;5054946;28;20017;-51
2023/05/27 11:56:51;;;;;;;9.00;8.10;;;35.60;99.90;;;;;;5055341;28;20552;-50
2023/05/27 11:59:17;;;;;;;10.57;9.50;;;36.10;99.90;;;;;;5055628;28;20543;-52
2023/05/27 12:01:43;;;;;;;9.45;8.55;;;35.90;99.90;;;;;;5055301;28;20482;-54
2023/05/27 12:04:09;;;;;;;11.40;10.15;;;36.20;99.90;;;;;;5054448;28;20098;-56
2023/05/27 12:06:37;;;;;;;11.27;8.25;;;35.70;99.90;;;;;;5054460;28;20029;-55
2023/05/27 12:09:05;;;;;;;11.05;9.95;;;37.00;99.90;;;;;;5052042;28;20094;-53
2023/05/27 12:11:31;;;;;;;9.00;8.15;;;38.30;99.90;;;;;;5054975;28;20409;-52
2023/05/27 12:13:57;;;;;;;8.73;7.95;;;40.00;99.90;;;;;;5053547;28;20028;-51
2023/05/27 12:16:23;;;;;;;8.82;8.13;;;40.40;99.90;;;;;;5056390;28;20033;-53
2023/05/27 12:18:50;;;;;;;8.48;7.78;;;39.90;99.90;;;;;;5055509;28;20028;-56
2023/05/27 12:21:16;;;;;;;9.15;8.35;;;40.80;99.90;;;;;;5054455;28;20108;-52
2023/05/27 12:23:42;;;;;;;9.10;8.18;;;41.70;99.90;;;;;;5056014;28;20486;-51
2023/05/27 12:26:08;;;;;;;9.50;8.70;;;42.60;99.90;;;;;;5052628;28;20126;-53
2023/05/27 12:28:34;;;;;;;9.60;8.63;;;42.70;99.90;;;;;;5054713;28;20025;-52
2023/05/27 12:31:00;;;;;;;8.05;7.38;;;43.40;99.90;;;;;;5055870;28;20387;-50
2023/05/27 12:33:26;;;;;;;6.97;6.38;;;43.20;99.90;;;;;;5053939;28;20036;-53
2023/05/27 12:35:52;;;;;;;7.30;6.60;;;42.60;99.90;;;;;;5055901;28;20028;-53
2023/05/27 12:38:18;;;;;;;7.70;7.13;;;41.50;99.90;;;;;;5054694;28;20430;-49
2023/05/27 12:40:44;;;;;;;8.07;7.38;;;40.30;99.90;;;;;;5053846;28;20431;-51
2023/05/27 12:43:09;;;;;;;8.18;7.47;;;39.20;99.90;;;;;;5054580;28;20037;-51
2023/05/27 12:45:35;;;;;;;6.53;6.03;;;37.50;99.90;;;;;;5053518;28;20029;-51
2023/05/27 12:48:01;;;;;;;7.63;7.03;;;35.80;99.90;;;;;;5054400;28;20020;-50
2023/05/27 12:50:27;;;;;;;8.57;7.80;;;34.80;99.90;;;;;;5054341;28;20025;-51
2023/05/27 12:52:53;;;;;;;8.07;7.40;;;34.80;99.90;;;;;;5053812;28;20052;-49
2023/05/27 12:55:21;;;;;;;7.10;6.60;;;35.20;99.90;;;;;;5054822;28;20025;-51
2023/05/27 12:57:49;;;;;;;8.38;7.65;;;34.90;99.90;;;;;;5052054;28;20017;-51
2023/05/27 13:00:16;;;;;;;7.60;6.90;;;34.10;99.90;;;;;;5044963;28;20033;-51
2023/05/27 13:02:43;;;;;;;8.80;8.00;;;33.60;99.90;;;;;;5048816;28;20122;-53
2023/05/27 13:05:09;;;;;;;8.50;7.82;;;33.50;99.90;;;;;;5055262;28;20108;-49